Time;durP1;ratioP1;P1;durP2;ratioP2;P2;SDS_P1;SDS_P2;PMS_P1;PMS_P2;Temp;Humidity;BMP_temperature;BMP_pressure;BME280_temperature;BME280_humidity;BME280_pressure;Samples;Min_cycle;Max_cycle;Signal;HPM_P1;HPM_P2
2021/08/12 00:01:47;;;;;;;9.70;6.05;;;23.30;58.40;;;;;;5055434;28;20029;-74
2021/08/12 00:04:17;;;;;;;6.10;5.38;;;23.30;58.50;;;;;;5055577;28;20032;-73
2021/08/12 00:06:44;;;;;;;7.13;5.45;;;23.30;59.20;;;;;;5055524;28;20033;-74
2021/08/12 00:09:10;;;;;;;7.30;5.20;;;23.20;58.70;;;;;;5055510;28;20025;-74
2021/08/12 00:11:35;;;;;;;7.95;5.45;;;23.20;58.70;;;;;;5056018;28;20096;-73
2021/08/12 00:14:01;;;;;;;7.57;6.13;;;23.10;58.70;;;;;;5055491;28;20407;-73
2021/08/12 00:16:27;;;;;;;6.78;5.45;;;23.10;58.80;;;;;;5055162;28;20207;-73
2021/08/12 00:18:55;;;;;;;8.45;5.78;;;23.10;58.90;;;;;;5055519;28;20025;-73
2021/08/12 00:21:22;;;;;;;7.45;5.45;;;23.10;59.00;;;;;;5055255;28;20526;-73
2021/08/12 00:23:49;;;;;;;8.57;5.60;;;23.10;59.00;;;;;;5053967;28;20173;-73
2021/08/12 00:26:14;;;;;;;10.07;5.57;;;23.10;59.00;;;;;;5055082;28;20457;-74
2021/08/12 00:28:40;;;;;;;8.15;6.13;;;23.00;59.00;;;;;;5055423;28;20029;-74
2021/08/12 00:31:06;;;;;;;9.27;5.38;;;23.00;59.10;;;;;;5054760;28;20401;-74
2021/08/12 00:33:33;;;;;;;10.30;6.22;;;23.00;59.20;;;;;;5055107;28;20063;-74
2021/08/12 00:35:59;;;;;;;8.43;5.38;;;23.00;59.40;;;;;;5053793;28;20025;-74
2021/08/12 00:38:25;;;;;;;7.78;5.15;;;22.90;59.40;;;;;;5054450;28;20040;-73
2021/08/12 00:40:51;;;;;;;7.85;5.00;;;22.90;59.60;;;;;;5054902;28;20091;-74
2021/08/12 00:43:16;;;;;;;6.70;4.90;;;22.90;59.70;;;;;;5070578;28;20025;-74
2021/08/12 00:45:42;;;;;;;7.50;5.75;;;22.90;59.80;;;;;;5053988;28;20029;-74
2021/08/12 00:48:08;;;;;;;8.70;5.20;;;22.90;59.90;;;;;;5054506;28;20151;-73
2021/08/12 00:50:37;;;;;;;6.40;5.05;;;22.80;60.00;;;;;;5054023;28;20032;-74
2021/08/12 00:53:03;;;;;;;8.70;5.57;;;22.80;60.20;;;;;;5054375;28;20040;-74
2021/08/12 00:55:28;;;;;;;6.97;5.18;;;22.80;60.30;;;;;;5054694;28;20028;-74
2021/08/12 00:57:54;;;;;;;7.65;5.63;;;22.80;60.40;;;;;;5054264;28;20039;-73
2021/08/12 01:00:20;;;;;;;8.68;5.15;;;22.80;60.60;;;;;;5053005;28;20112;-74
2021/08/12 01:02:46;;;;;;;8.30;5.65;;;22.70;60.60;;;;;;5054594;28;20120;-73
2021/08/12 01:05:12;;;;;;;10.95;5.65;;;22.70;60.70;;;;;;5054164;28;20025;-73
2021/08/12 01:07:47;;;;;;;8.48;5.90;;;22.70;60.90;;;;;;5054195;28;20362;-74
2021/08/12 01:10:31;;;;;;;9.23;5.13;;;22.70;61.10;;;;;;5054341;28;20037;-73
2021/08/12 01:13:04;;;;;;;6.03;5.32;;;22.60;61.20;;;;;;5054105;28;20078;-75
2021/08/12 01:15:38;;;;;;;6.88;4.72;;;22.60;61.30;;;;;;5053533;28;20040;-73
2021/08/12 01:18:11;;;;;;;6.50;4.70;;;22.60;61.50;;;;;;5054189;28;20033;-73
2021/08/12 01:20:45;;;;;;;7.82;5.53;;;22.60;61.60;;;;;;5052685;28;20033;-74
2021/08/12 01:23:12;;;;;;;6.70;5.03;;;22.60;61.70;;;;;;5053904;28;20048;-74
2021/08/12 01:25:40;;;;;;;9.05;5.50;;;22.50;61.70;;;;;;5053846;28;20033;-74
2021/08/12 01:28:18;;;;;;;8.05;5.15;;;22.50;61.90;;;;;;5053823;28;20025;-73
2021/08/12 01:31:11;;;;;;;10.48;5.05;;;22.50;62.10;;;;;;5053845;28;20534;-74
2021/08/12 01:34:09;;;;;;;6.90;5.53;;;22.50;62.20;;;;;;5052742;28;20091;-73
2021/08/12 01:36:40;;;;;;;6.50;5.32;;;22.50;62.20;;;;;;5053588;28;20021;-75
2021/08/12 01:39:07;;;;;;;7.22;5.70;;;22.50;62.30;;;;;;5053792;28;20037;-74
2021/08/12 01:41:34;;;;;;;6.60;5.10;;;22.40;62.40;;;;;;5053947;28;20457;-73
2021/08/12 01:44:01;;;;;;;6.40;5.25;;;22.40;62.50;;;;;;5053533;28;20493;-75
2021/08/12 01:46:28;;;;;;;7.85;5.00;;;22.40;62.70;;;;;;5054152;28;20053;-74
2021/08/12 01:48:55;;;;;;;6.70;5.68;;;22.40;62.80;;;;;;5053863;28;20057;-74
2021/08/12 01:51:24;;;;;;;7.93;5.35;;;22.30;62.90;;;;;;5053771;28;20029;-73
2021/08/12 01:53:51;;;;;;;7.00;4.95;;;22.30;63.00;;;;;;5052806;28;20073;-74
2021/08/12 01:56:17;;;;;;;6.47;4.82;;;22.30;63.10;;;;;;5052129;28;20029;-74
2021/08/12 01:58:44;;;;;;;7.07;5.30;;;22.30;63.20;;;;;;5052367;28;20033;-74
2021/08/12 02:01:11;;;;;;;7.40;5.10;;;22.30;63.40;;;;;;5053665;28;20462;-74
2021/08/12 02:03:36;;;;;;;6.65;5.00;;;22.20;63.50;;;;;;5053374;28;20052;-74
2021/08/12 02:06:04;;;;;;;6.70;5.05;;;22.20;63.50;;;;;;5052681;28;20058;-74
2021/08/12 02:08:30;;;;;;;7.95;4.97;;;22.20;63.50;;;;;;5053219;28;20464;-73
2021/08/12 02:10:56;;;;;;;7.45;5.13;;;22.10;63.50;;;;;;5054358;28;20347;-74
2021/08/12 02:13:24;;;;;;;9.85;5.47;;;22.10;63.60;;;;;;5053306;28;20146;-75
2021/08/12 02:15:51;;;;;;;6.90;5.05;;;22.00;63.80;;;;;;5053516;28;20028;-73
2021/08/12 02:18:17;;;;;;;8.75;5.07;;;22.00;64.00;;;;;;5053436;28;20037;-73
2021/08/12 02:20:50;;;;;;;7.07;5.50;;;21.90;64.00;;;;;;5053793;28;20029;-73
2021/08/12 02:23:25;;;;;;;6.30;5.10;;;21.90;64.30;;;;;;5052194;28;20090;-74
2021/08/12 02:26:03;;;;;;;7.25;5.43;;;21.80;64.30;;;;;;5053435;28;20025;-74
2021/08/12 02:28:31;;;;;;;6.85;5.38;;;21.70;64.20;;;;;;5053726;28;20037;-73
2021/08/12 02:30:58;;;;;;;5.30;4.72;;;21.70;64.30;;;;;;5053113;28;20473;-73
2021/08/12 02:33:30;;;;;;;6.22;5.22;;;21.60;64.40;;;;;;5053650;28;20369;-74
2021/08/12 02:35:57;;;;;;;6.88;5.35;;;21.50;64.50;;;;;;5054142;28;20449;-74
2021/08/12 02:38:25;;;;;;;6.30;5.03;;;21.50;64.80;;;;;;5053419;28;20041;-73
2021/08/12 02:40:53;;;;;;;6.82;5.20;;;21.40;64.90;;;;;;5053296;28;20373;-73
2021/08/12 02:43:20;;;;;;;8.70;5.45;;;21.30;65.00;;;;;;5052913;28;20037;-74
2021/08/12 02:45:48;;;;;;;6.70;5.47;;;21.30;65.20;;;;;;5053275;28;20025;-75
2021/08/12 02:48:14;;;;;;;9.52;5.72;;;21.30;65.30;;;;;;5053488;28;20025;-75
2021/08/12 02:50:43;;;;;;;6.88;5.78;;;21.20;65.40;;;;;;5053450;28;20430;-75
2021/08/12 02:53:09;;;;;;;7.40;4.95;;;21.20;65.50;;;;;;5051847;28;20407;-75
2021/08/12 02:55:36;;;;;;;9.23;5.95;;;21.20;65.50;;;;;;5053196;28;20039;-73
2021/08/12 02:58:04;;;;;;;7.82;5.45;;;21.20;65.60;;;;;;5051611;28;20029;-73
2021/08/12 03:00:31;;;;;;;7.47;5.47;;;21.20;65.70;;;;;;5053003;28;20464;-74
2021/08/12 03:02:57;;;;;;;8.27;5.65;;;21.20;65.70;;;;;;5053299;28;20029;-73
2021/08/12 03:05:23;;;;;;;6.82;6.07;;;21.10;65.80;;;;;;5036027;28;20120;-73
2021/08/12 03:07:50;;;;;;;8.00;5.53;;;21.20;65.90;;;;;;5054358;28;20063;-74
2021/08/12 03:10:19;;;;;;;7.60;5.32;;;21.20;66.00;;;;;;5057462;28;20036;-75
2021/08/12 03:12:47;;;;;;;10.27;5.05;;;21.20;66.10;;;;;;5056646;28;20029;-73
2021/08/12 03:15:14;;;;;;;8.95;5.50;;;21.10;66.10;;;;;;5055304;28;20111;-74
2021/08/12 03:17:41;;;;;;;7.47;5.60;;;21.20;66.20;;;;;;5056736;28;20056;-74
2021/08/12 03:20:08;;;;;;;10.77;5.80;;;21.20;66.20;;;;;;5055620;28;20048;-75
2021/08/12 03:22:34;;;;;;;6.25;5.00;;;21.20;66.80;;;;;;5055075;28;20119;-74
2021/08/12 03:25:00;;;;;;;6.88;5.15;;;21.20;66.20;;;;;;5054970;28;20059;-74
2021/08/12 03:27:26;;;;;;;9.18;6.55;;;21.20;66.20;;;;;;5056323;28;20021;-73
2021/08/12 03:29:52;;;;;;;8.15;5.30;;;21.20;66.20;;;;;;5056294;28;20032;-74
2021/08/12 03:32:19;;;;;;;10.50;5.93;;;21.20;66.30;;;;;;5072177;28;20156;-74
2021/08/12 03:34:45;;;;;;;9.63;5.95;;;21.20;66.30;;;;;;5055930;28;20526;-74
2021/08/12 03:37:11;;;;;;;8.02;5.50;;;21.20;66.20;;;;;;5056150;28;20365;-74
2021/08/12 03:39:36;;;;;;;8.13;6.53;;;21.20;66.30;;;;;;5054818;28;20041;-74
2021/08/12 03:42:03;;;;;;;11.90;7.47;;;21.20;66.30;;;;;;5056314;28;20130;-74
2021/08/12 03:44:29;;;;;;;14.80;7.78;;;21.20;66.40;;;;;;5056291;28;20029;-74
2021/08/12 03:46:54;;;;;;;10.32;6.95;;;21.20;66.40;;;;;;5056042;28;20025;-74
2021/08/12 03:49:20;;;;;;;10.43;7.43;;;21.20;66.50;;;;;;5055949;28;20040;-74
2021/08/12 03:51:46;;;;;;;9.32;7.00;;;21.20;66.40;;;;;;5055606;28;20484;-74
2021/08/12 03:54:12;;;;;;;9.35;6.47;;;21.30;66.50;;;;;;5056031;28;20049;-74
2021/08/12 03:56:37;;;;;;;8.65;5.82;;;21.30;66.40;;;;;;5055520;28;20060;-74
2021/08/12 03:59:04;;;;;;;8.13;6.10;;;21.30;66.30;;;;;;5055606;28;20099;-74
2021/08/12 04:01:30;;;;;;;12.27;6.03;;;21.30;66.20;;;;;;5054439;28;20021;-74
2021/08/12 04:03:56;;;;;;;10.73;5.88;;;21.30;66.20;;;;;;5055709;28;20017;-74
2021/08/12 04:06:22;;;;;;;7.07;5.45;;;21.40;66.80;;;;;;5055611;28;20537;-73
2021/08/12 04:08:47;;;;;;;7.75;5.80;;;21.30;66.00;;;;;;5054255;28;20294;-74
2021/08/12 04:11:13;;;;;;;9.73;6.05;;;21.30;66.00;;;;;;5055528;28;20086;-74
2021/08/12 04:13:39;;;;;;;8.52;6.05;;;21.40;66.10;;;;;;5055765;28;20055;-75
2021/08/12 04:16:05;;;;;;;9.32;6.20;;;21.40;66.10;;;;;;5055435;28;20047;-74
2021/08/12 04:18:31;;;;;;;9.85;6.15;;;21.40;66.00;;;;;;5055073;28;20100;-75
2021/08/12 04:20:56;;;;;;;11.07;5.85;;;21.40;65.90;;;;;;5055330;28;20025;-74
2021/08/12 04:23:23;;;;;;;8.07;5.65;;;21.40;66.00;;;;;;5055027;28;20052;-74
2021/08/12 04:25:51;;;;;;;9.40;6.35;;;21.40;66.10;;;;;;5055774;28;20025;-74
2021/08/12 04:28:17;;;;;;;7.07;5.70;;;21.50;66.10;;;;;;5054858;28;20435;-72
2021/08/12 04:30:42;;;;;;;8.60;5.65;;;21.50;66.20;;;;;;5055410;28;20021;-74
2021/08/12 04:33:08;;;;;;;6.55;5.60;;;21.50;66.20;;;;;;5055093;28;20108;-74
2021/08/12 04:35:34;;;;;;;7.30;5.90;;;21.50;66.20;;;;;;5055237;28;20032;-75
2021/08/12 04:38:00;;;;;;;9.13;6.18;;;21.50;66.00;;;;;;5054950;28;20060;-74
2021/08/12 04:40:25;;;;;;;11.60;6.13;;;21.50;66.10;;;;;;5053736;28;20049;-75
2021/08/12 04:42:52;;;;;;;7.88;5.60;;;21.50;66.10;;;;;;5054549;28;20461;-74
2021/08/12 04:45:20;;;;;;;7.20;5.88;;;21.60;66.20;;;;;;5053645;28;20123;-74
2021/08/12 04:47:46;;;;;;;8.60;6.07;;;21.60;66.10;;;;;;5070292;28;20033;-74
2021/08/12 04:50:12;;;;;;;8.60;6.03;;;21.60;66.00;;;;;;5054002;28;20033;-77
2021/08/12 04:52:39;;;;;;;8.25;6.00;;;21.70;65.90;;;;;;5054478;28;20081;-74
2021/08/12 04:55:08;;;;;;;10.60;6.40;;;21.70;66.00;;;;;;5054410;28;20017;-74
2021/08/12 04:57:40;;;;;;;8.93;5.85;;;21.70;65.90;;;;;;5054498;28;20033;-74
2021/08/12 05:00:07;;;;;;;7.60;5.70;;;21.70;66.00;;;;;;5054293;28;20021;-74
2021/08/12 05:02:33;;;;;;;9.40;6.10;;;21.80;66.00;;;;;;5055057;28;20052;-73
2021/08/12 05:04:59;;;;;;;9.75;6.03;;;21.90;66.00;;;;;;5055068;28;20037;-74
2021/08/12 05:07:24;;;;;;;6.82;5.38;;;21.90;65.90;;;;;;5054750;28;20463;-74
2021/08/12 05:09:50;;;;;;;9.20;5.80;;;21.90;65.90;;;;;;5052879;28;20029;-74
2021/08/12 05:12:19;;;;;;;12.60;6.70;;;22.00;65.90;;;;;;5053860;28;20021;-74
2021/08/12 05:14:46;;;;;;;8.07;6.63;;;22.00;65.90;;;;;;5054592;28;20040;-75
2021/08/12 05:17:36;;;;;;;8.48;6.05;;;22.10;65.80;;;;;;5054032;28;20379;-75
2021/08/12 05:20:11;;;;;;;10.30;6.18;;;22.10;65.80;;;;;;5053269;28;20393;-74
2021/08/12 05:22:42;;;;;;;9.60;6.25;;;22.20;65.80;;;;;;5052814;28;20039;-75
2021/08/12 05:25:13;;;;;;;8.77;6.28;;;22.30;65.70;;;;;;5053942;28;20466;-75
2021/08/12 05:27:39;;;;;;;11.52;6.40;;;22.30;65.60;;;;;;5053778;28;20431;-74
2021/08/12 05:30:06;;;;;;;6.65;5.80;;;22.30;65.40;;;;;;5053767;28;20028;-74
2021/08/12 05:32:31;;;;;;;9.25;6.03;;;22.30;65.50;;;;;;5052634;28;20029;-74
2021/08/12 05:34:57;;;;;;;9.80;6.20;;;22.30;65.50;;;;;;5054158;28;20078;-74
2021/08/12 05:37:23;;;;;;;8.63;6.30;;;22.40;65.40;;;;;;5053352;28;20028;-74
2021/08/12 05:39:48;;;;;;;9.90;6.57;;;22.40;65.30;;;;;;5053670;28;20025;-74
2021/08/12 05:42:14;;;;;;;9.73;6.45;;;22.50;65.30;;;;;;5053474;28;20521;-75
2021/08/12 05:44:40;;;;;;;8.80;6.18;;;22.50;65.50;;;;;;5052174;28;20500;-74
2021/08/12 05:47:06;;;;;;;7.97;6.65;;;22.60;65.50;;;;;;5053758;28;20021;-74
2021/08/12 05:49:31;;;;;;;11.57;6.50;;;22.70;66.00;;;;;;5052489;28;20033;-74
2021/08/12 05:51:57;;;;;;;8.68;6.55;;;22.80;65.10;;;;;;5053583;28;20482;-74
2021/08/12 05:54:23;;;;;;;10.27;6.50;;;22.90;65.00;;;;;;5053840;28;20048;-73
2021/08/12 05:56:48;;;;;;;8.95;6.03;;;23.00;64.70;;;;;;5052352;28;20037;-75
2021/08/12 05:59:14;;;;;;;7.35;6.07;;;23.10;64.60;;;;;;5053383;28;20040;-74
2021/08/12 06:01:40;;;;;;;8.93;6.78;;;23.10;64.50;;;;;;5053574;28;20024;-74
2021/08/12 06:04:05;;;;;;;14.05;6.88;;;23.20;64.50;;;;;;5054116;28;20115;-74
2021/08/12 06:06:31;;;;;;;9.45;6.28;;;23.30;64.30;;;;;;5053286;28;20057;-74
2021/08/12 06:08:57;;;;;;;9.13;6.13;;;23.40;64.10;;;;;;5052391;28;20025;-74
2021/08/12 06:11:23;;;;;;;8.10;6.13;;;23.50;63.80;;;;;;5052391;28;20033;-75
2021/08/12 06:13:49;;;;;;;10.15;6.05;;;23.60;63.70;;;;;;5053798;28;20025;-75
2021/08/12 06:16:14;;;;;;;10.10;6.40;;;23.60;63.70;;;;;;5052340;28;20047;-74
2021/08/12 06:18:40;;;;;;;7.20;5.60;;;23.70;63.60;;;;;;5053617;28;20059;-74
2021/08/12 06:21:06;;;;;;;9.13;5.80;;;23.70;63.40;;;;;;5053996;28;20086;-74
2021/08/12 06:23:32;;;;;;;8.85;6.25;;;23.70;63.30;;;;;;5053912;28;20029;-75
2021/08/12 06:25:58;;;;;;;11.77;6.18;;;23.70;63.40;;;;;;5053867;28;20029;-74
2021/08/12 06:28:24;;;;;;;9.80;5.57;;;23.80;63.30;;;;;;5053414;28;20037;-74
2021/08/12 06:30:50;;;;;;;7.78;5.70;;;23.90;63.10;;;;;;5053607;28;20029;-74
2021/08/12 06:33:16;;;;;;;6.75;5.68;;;24.00;62.90;;;;;;5053025;28;20036;-75
2021/08/12 06:35:41;;;;;;;9.82;5.53;;;24.10;62.70;;;;;;5053264;28;20025;-74
2021/08/12 06:38:07;;;;;;;8.43;5.90;;;24.20;62.60;;;;;;5053019;28;20029;-73
2021/08/12 06:40:33;;;;;;;7.72;5.38;;;24.20;62.40;;;;;;5052248;28;20053;-74
2021/08/12 06:42:59;;;;;;;10.05;5.85;;;24.30;62.20;;;;;;5055485;28;20094;-74
2021/08/12 06:45:25;;;;;;;8.85;5.50;;;24.40;62.10;;;;;;5057105;28;20060;-75
2021/08/12 06:47:54;;;;;;;6.80;5.60;;;24.40;62.00;;;;;;5057596;28;20037;-74
2021/08/12 06:50:21;;;;;;;6.35;5.70;;;24.40;62.00;;;;;;5057053;28;20478;-75
2021/08/12 06:52:53;;;;;;;7.90;6.07;;;24.50;61.80;;;;;;5056757;28;20083;-75
2021/08/12 06:55:20;;;;;;;7.38;5.70;;;24.50;61.60;;;;;;5056798;28;20021;-75
2021/08/12 06:57:58;;;;;;;8.57;6.15;;;24.60;61.50;;;;;;5055576;28;20045;-75
2021/08/12 07:00:23;;;;;;;10.52;5.60;;;24.60;61.40;;;;;;5055909;28;20468;-75
2021/08/12 07:02:49;;;;;;;9.38;5.65;;;24.70;61.40;;;;;;5055570;28;20029;-74
2021/08/12 07:05:15;;;;;;;6.57;5.18;;;24.80;61.30;;;;;;5057000;28;20025;-75
2021/08/12 07:07:40;;;;;;;7.28;5.80;;;24.80;61.30;;;;;;5056671;28;20032;-74
2021/08/12 07:10:12;;;;;;;6.50;5.63;;;24.80;61.10;;;;;;5056755;28;20075;-75
2021/08/12 07:12:40;;;;;;;6.03;5.05;;;24.90;60.80;;;;;;5057269;28;20124;-75
2021/08/12 07:15:10;;;;;;;7.55;5.35;;;24.90;60.80;;;;;;5057804;28;20037;-73
2021/08/12 07:17:37;;;;;;;6.25;5.55;;;24.90;60.80;;;;;;5058154;28;20025;-74
2021/08/12 07:20:05;;;;;;;7.45;5.45;;;25.00;61.00;;;;;;5055088;28;20025;-73
2021/08/12 07:22:32;;;;;;;9.50;5.90;;;25.00;61.10;;;;;;5056300;28;20025;-75
2021/08/12 07:25:01;;;;;;;9.88;5.80;;;25.10;60.90;;;;;;5056380;28;20104;-76
2021/08/12 07:27:28;;;;;;;7.00;5.85;;;25.20;60.80;;;;;;5056330;28;20512;-74
2021/08/12 07:29:56;;;;;;;7.05;5.93;;;25.30;60.60;;;;;;5056257;28;20025;-74
2021/08/12 07:32:24;;;;;;;7.95;5.53;;;25.40;60.50;;;;;;5056202;28;20091;-78
2021/08/12 07:34:50;;;;;;;12.93;5.95;;;25.50;60.00;;;;;;5056126;28;20029;-75
2021/08/12 07:37:18;;;;;;;7.97;5.57;;;25.70;59.90;;;;;;5056102;28;20024;-76
2021/08/12 07:39:44;;;;;;;8.27;5.63;;;25.80;59.70;;;;;;5055297;28;20040;-75
2021/08/12 07:42:10;;;;;;;6.82;5.07;;;25.90;59.60;;;;;;5055494;28;20025;-75
2021/08/12 07:44:35;;;;;;;7.03;5.20;;;25.90;59.20;;;;;;5055940;28;20068;-76
2021/08/12 07:47:01;;;;;;;7.82;5.25;;;25.90;59.00;;;;;;5056235;28;20029;-75
2021/08/12 07:49:30;;;;;;;7.47;5.13;;;26.00;58.80;;;;;;5056383;28;20107;-74
2021/08/12 07:51:57;;;;;;;6.72;4.90;;;26.00;58.70;;;;;;5055817;28;20117;-73
2021/08/12 07:54:22;;;;;;;5.90;5.30;;;26.00;58.60;;;;;;5055964;28;20377;-74
2021/08/12 07:56:48;;;;;;;7.43;5.10;;;26.20;58.60;;;;;;5055465;28;20041;-74
2021/08/12 07:59:14;;;;;;;6.28;4.70;;;26.30;57.70;;;;;;5055728;28;20039;-74
2021/08/12 08:01:40;;;;;;;11.35;5.22;;;26.40;57.10;;;;;;5056150;28;20099;-74
2021/08/12 08:04:06;;;;;;;7.05;4.93;;;26.60;56.90;;;;;;5055455;28;20029;-75
2021/08/12 08:06:32;;;;;;;6.55;4.57;;;26.80;56.60;;;;;;5056143;28;20025;-73
2021/08/12 08:08:58;;;;;;;9.88;5.32;;;26.90;56.00;;;;;;5055343;28;20086;-75
2021/08/12 08:11:24;;;;;;;12.57;6.15;;;27.00;55.80;;;;;;5055472;28;20029;-75
2021/08/12 08:13:49;;;;;;;8.07;4.95;;;27.00;55.50;;;;;;5055534;28;20052;-74
2021/08/12 08:16:16;;;;;;;6.32;4.93;;;27.10;55.00;;;;;;5056289;28;20033;-74
2021/08/12 08:18:41;;;;;;;7.95;5.13;;;27.20;54.60;;;;;;5053962;28;20033;-74
2021/08/12 08:21:07;;;;;;;7.60;4.78;;;27.20;54.60;;;;;;5055335;28;20036;-74
2021/08/12 08:23:33;;;;;;;6.10;4.60;;;27.30;54.40;;;;;;5055173;28;20075;-75
2021/08/12 08:25:58;;;;;;;8.88;4.90;;;27.50;53.60;;;;;;5054736;28;20064;-75
2021/08/12 08:28:24;;;;;;;6.90;5.03;;;27.60;53.00;;;;;;5056175;28;20033;-73
2021/08/12 08:30:50;;;;;;;7.72;4.43;;;27.70;52.60;;;;;;5055190;28;20439;-76
2021/08/12 08:33:16;;;;;;;8.88;5.10;;;27.90;52.30;;;;;;5055168;28;20036;-74
2021/08/12 08:35:41;;;;;;;5.40;4.80;;;28.10;51.60;;;;;;5055118;28;20075;-75
2021/08/12 08:38:07;;;;;;;6.60;4.68;;;28.20;51.10;;;;;;5054226;28;20033;-75
2021/08/12 08:40:34;;;;;;;7.90;5.25;;;28.40;50.90;;;;;;5054714;28;20119;-75
2021/08/12 08:43:01;;;;;;;8.23;5.10;;;28.60;50.50;;;;;;5054327;28;20051;-75
2021/08/12 08:45:29;;;;;;;11.20;5.13;;;28.80;50.40;;;;;;5053564;28;20084;-75
2021/08/12 08:47:56;;;;;;;8.70;4.22;;;29.00;49.70;;;;;;5054807;28;20112;-74
2021/08/12 08:50:28;;;;;;;9.30;4.50;;;29.10;49.40;;;;;;5054768;28;20100;-75
2021/08/12 08:52:54;;;;;;;5.45;4.63;;;29.20;49.10;;;;;;5052999;28;20404;-74
2021/08/12 08:55:23;;;;;;;5.93;4.80;;;29.30;49.00;;;;;;5054716;28;20096;-76
2021/08/12 08:57:56;;;;;;;6.40;4.07;;;29.40;48.50;;;;;;5054923;28;20094;-78
2021/08/12 09:00:26;;;;;;;7.85;4.45;;;29.40;48.00;;;;;;5054859;28;20029;-75
2021/08/12 09:02:53;;;;;;;9.02;4.18;;;29.50;47.70;;;;;;5054498;28;20024;-75
2021/08/12 09:05:26;;;;;;;6.55;4.45;;;29.70;47.20;;;;;;5054278;28;20087;-77
2021/08/12 09:07:52;;;;;;;9.90;4.57;;;29.90;47.00;;;;;;5054203;28;20059;-74
2021/08/12 09:10:19;;;;;;;6.90;4.63;;;30.10;46.70;;;;;;5054546;28;20040;-76
2021/08/12 09:12:47;;;;;;;7.70;3.92;;;30.30;46.40;;;;;;5055335;28;20100;-75
2021/08/12 09:15:23;;;;;;;7.60;4.35;;;30.50;46.10;;;;;;5054257;28;20021;-75
2021/08/12 09:17:53;;;;;;;5.03;3.80;;;30.60;45.90;;;;;;5054360;28;20067;-76
2021/08/12 09:20:25;;;;;;;12.63;4.05;;;30.80;45.10;;;;;;5053178;28;20131;-77
2021/08/12 09:23:00;;;;;;;4.47;3.55;;;30.80;45.10;;;;;;5054255;28;20060;-77
2021/08/12 09:25:36;;;;;;;5.10;3.38;;;31.10;44.10;;;;;;5052876;28;20029;-75
2021/08/12 09:28:31;;;;;;;6.15;3.58;;;31.20;43.70;;;;;;5054350;28;20131;-76
2021/08/12 09:31:00;;;;;;;5.82;3.40;;;31.30;43.20;;;;;;5053524;28;20131;-75
2021/08/12 09:33:34;;;;;;;6.45;3.63;;;31.50;42.90;;;;;;5054076;28;20369;-75
2021/08/12 09:36:00;;;;;;;;;;;31.80;43.00;;;;;;5054678;28;20017;-75
2021/08/12 09:38:26;;;;;;;6.03;3.17;;;32.10;42.90;;;;;;5053964;28;19909;-74
2021/08/12 09:41:00;;;;;;;4.65;3.67;;;32.10;42.10;;;;;;5053856;28;20033;-75
2021/08/12 09:43:37;;;;;;;4.32;3.33;;;32.10;42.00;;;;;;5054030;28;20021;-75
2021/08/12 09:46:06;;;;;;;10.70;3.80;;;32.30;41.90;;;;;;5053643;28;20024;-75
2021/08/12 09:48:31;;;;;;;7.65;3.20;;;32.60;41.80;;;;;;5053741;28;20461;-75
2021/08/12 09:51:06;;;;;;;6.82;3.90;;;32.70;41.60;;;;;;5054260;28;20516;-75
2021/08/12 09:53:33;;;;;;;9.32;3.50;;;32.90;42.30;;;;;;5052396;28;20051;-74
2021/08/12 09:56:09;;;;;;;11.02;3.53;;;33.30;41.20;;;;;;5053404;28;20120;-74
2021/08/12 09:58:36;;;;;;;8.32;3.40;;;33.80;40.40;;;;;;5052583;28;20025;-75
2021/08/12 10:01:22;;;;;;;5.03;3.17;;;34.10;39.90;;;;;;5053869;28;20056;-75
2021/08/12 10:03:51;;;;;;;3.28;2.58;;;34.30;39.10;;;;;;5052339;28;20060;-74
2021/08/12 10:06:18;;;;;;;3.55;2.60;;;34.30;38.60;;;;;;5053940;28;20342;-74
2021/08/12 10:08:43;;;;;;;4.90;2.28;;;34.30;38.20;;;;;;5053755;28;20040;-74
2021/08/12 10:11:25;;;;;;;4.57;2.72;;;34.40;37.80;;;;;;5053466;28;20381;-74
2021/08/12 10:13:55;;;;;;;3.10;2.80;;;34.50;38.10;;;;;;5053746;28;20468;-74
2021/08/12 10:16:22;;;;;;;3.83;2.80;;;34.70;38.10;;;;;;5054422;28;20053;-74
2021/08/12 10:18:49;;;;;;;4.90;2.80;;;35.00;37.80;;;;;;5057547;28;20488;-75
2021/08/12 10:21:17;;;;;;;4.55;2.85;;;35.10;37.30;;;;;;5058121;28;20032;-75
2021/08/12 10:23:48;;;;;;;3.17;2.88;;;35.30;37.50;;;;;;5057506;28;20025;-75
2021/08/12 10:26:15;;;;;;;6.97;2.78;;;35.70;37.30;;;;;;5057842;28;20111;-75
2021/08/12 10:28:43;;;;;;;4.60;2.60;;;35.90;37.40;;;;;;5057676;28;20056;-75
2021/08/12 10:31:10;;;;;;;4.38;2.80;;;36.30;37.40;;;;;;5057122;28;20037;-75
2021/08/12 10:33:36;;;;;;;5.57;2.88;;;36.70;37.40;;;;;;5057660;28;20025;-76
2021/08/12 10:36:02;;;;;;;6.00;2.90;;;36.90;36.40;;;;;;5057246;28;20025;-74
2021/08/12 10:38:29;;;;;;;4.32;3.40;;;36.90;35.80;;;;;;5057213;28;20043;-75
2021/08/12 10:40:56;;;;;;;4.75;2.65;;;36.80;35.80;;;;;;5057264;28;20110;-75
2021/08/12 10:43:28;;;;;;;2.83;2.40;;;36.90;35.10;;;;;;5057475;28;20029;-75
2021/08/12 10:46:02;;;;;;;6.05;2.72;;;37.00;35.00;;;;;;5057214;28;20030;-75
2021/08/12 10:48:29;;;;;;;3.88;2.70;;;37.20;35.30;;;;;;5057065;28;20037;-73
2021/08/12 10:51:21;;;;;;;4.70;2.67;;;37.40;35.40;;;;;;5057009;28;20491;-74
2021/08/12 10:54:17;;;;;;;6.22;2.78;;;37.70;35.50;;;;;;5055201;28;20055;-75
2021/08/12 10:56:43;;;;;;;5.72;2.90;;;38.10;35.40;;;;;;5056906;28;20021;-74
2021/08/12 10:59:08;;;;;;;5.28;2.80;;;38.40;35.00;;;;;;5056418;28;20043;-74
2021/08/12 11:01:39;;;;;;;5.43;2.92;;;38.70;35.00;;;;;;5057075;28;20033;-74
2021/08/12 11:04:06;;;;;;;4.88;2.70;;;39.00;34.60;;;;;;5056696;28;20021;-75
2021/08/12 11:06:43;;;;;;;4.55;2.92;;;39.30;34.50;;;;;;5056651;28;20052;-75
2021/08/12 11:09:11;;;;;;;5.97;3.00;;;39.50;34.40;;;;;;5056677;28;20461;-75
2021/08/12 11:11:37;;;;;;;3.90;2.60;;;39.80;34.50;;;;;;5056576;28;20082;-75
2021/08/12 11:14:05;;;;;;;6.15;2.78;;;40.10;34.20;;;;;;5056848;28;20411;-75
2021/08/12 11:16:40;;;;;;;4.07;2.78;;;40.30;33.80;;;;;;5056462;28;20021;-74
2021/08/12 11:19:07;;;;;;;3.38;2.65;;;40.60;34.20;;;;;;5056944;28;20068;-75
2021/08/12 11:21:38;;;;;;;2.85;2.63;;;40.90;33.50;;;;;;5057218;28;20040;-73
2021/08/12 11:24:07;;;;;;;7.97;3.03;;;41.20;32.70;;;;;;5056110;28;20036;-74
2021/08/12 11:26:44;;;;;;;4.97;2.65;;;41.40;32.40;;;;;;5056112;28;20025;-75
2021/08/12 11:29:22;;;;;;;5.82;2.35;;;41.80;32.20;;;;;;5055028;28;20115;-75
2021/08/12 11:31:48;;;;;;;6.18;2.50;;;42.00;31.80;;;;;;5055850;28;20500;-74
2021/08/12 11:34:33;;;;;;;3.35;2.33;;;42.30;31.90;;;;;;5054991;28;20029;-74
2021/08/12 11:37:13;;;;;;;3.38;2.53;;;42.60;31.00;;;;;;5055957;28;20024;-74
2021/08/12 11:40:02;;;;;;;5.22;2.47;;;42.80;30.90;;;;;;5056089;28;20040;-75
2021/08/12 11:42:31;;;;;;;3.72;2.47;;;43.00;31.00;;;;;;5056350;28;20033;-74
2021/08/12 11:45:00;;;;;;;2.80;2.60;;;43.00;31.00;;;;;;5056192;28;20029;-76
2021/08/12 11:47:26;;;;;;;4.38;3.30;;;43.10;30.90;;;;;;5054761;28;20025;-75
2021/08/12 11:49:57;;;;;;;3.22;2.80;;;43.30;31.10;;;;;;5055626;28;20033;-75
2021/08/12 11:52:34;;;;;;;4.65;3.00;;;43.70;31.00;;;;;;5055852;28;20033;-74
2021/08/12 11:55:01;;;;;;;4.68;3.15;;;44.00;31.00;;;;;;5055408;28;20041;-75
2021/08/12 11:57:41;;;;;;;5.18;3.00;;;44.20;30.80;;;;;;5055058;28;20446;-75
2021/08/12 12:00:34;;;;;;;5.03;3.35;;;44.40;30.50;;;;;;5055674;28;20033;-76
2021/08/12 12:03:06;;;;;;;4.43;3.03;;;44.60;30.40;;;;;;5055838;28;20025;-75
2021/08/12 12:05:34;;;;;;;4.13;3.00;;;44.60;30.20;;;;;;5055515;28;20090;-75
2021/08/12 12:08:05;;;;;;;3.22;2.72;;;44.60;30.40;;;;;;5055428;28;20029;-74
2021/08/12 12:10:35;;;;;;;5.38;2.78;;;44.70;30.20;;;;;;5055170;28;20036;-74
2021/08/12 12:13:18;;;;;;;5.18;2.75;;;44.80;29.90;;;;;;5055164;28;20021;-79
2021/08/12 12:15:48;;;;;;;6.63;2.80;;;44.80;29.80;;;;;;5055487;28;20021;-77
2021/08/12 12:18:31;;;;;;;4.25;2.83;;;44.90;30.00;;;;;;5055634;28;20037;-77
2021/08/12 12:21:07;;;;;;;4.50;2.65;;;45.30;29.90;;;;;;5054242;28;20031;-76
2021/08/12 12:23:34;;;;;;;3.85;2.88;;;45.30;29.90;;;;;;5054667;28;20342;-73
2021/08/12 12:26:00;;;;;;;3.30;2.80;;;45.40;29.90;;;;;;5053930;28;20056;-78
2021/08/12 12:28:25;;;;;;;5.18;2.78;;;45.70;30.00;;;;;;5055206;28;20067;-78
2021/08/12 12:30:51;;;;;;;4.50;2.72;;;45.90;29.80;;;;;;5055201;28;20036;-77
2021/08/12 12:33:18;;;;;;;3.88;2.47;;;46.00;29.80;;;;;;5054949;28;20070;-77
2021/08/12 12:35:46;;;;;;;2.90;2.70;;;46.20;29.80;;;;;;5055554;28;20061;-77
2021/08/12 12:38:16;;;;;;;6.65;2.90;;;46.40;29.70;;;;;;5054291;28;20086;-77
2021/08/12 12:40:42;;;;;;;3.22;2.92;;;46.60;29.60;;;;;;5053641;28;20112;-77
2021/08/12 12:43:08;;;;;;;4.22;2.90;;;46.70;29.50;;;;;;5055280;28;20059;-77
2021/08/12 12:45:55;;;;;;;6.82;3.05;;;46.80;29.40;;;;;;5054966;28;20113;-77
2021/08/12 12:48:33;;;;;;;3.22;2.50;;;47.00;29.40;;;;;;5054426;28;20032;-77
2021/08/12 12:51:03;;;;;;;5.30;3.22;;;47.20;29.20;;;;;;5053758;28;20381;-77
2021/08/12 12:53:41;;;;;;;4.65;2.50;;;47.20;29.10;;;;;;5054869;28;20045;-76